createdAt,value
2023-01-19T00:04:44.401Z,1.76
2023-01-19T00:09:47.599Z,1.73
2023-01-19T00:14:50.431Z,1.79
2023-01-19T00:19:53.234Z,1.86
2023-01-19T00:24:56.703Z,1.83
2023-01-19T00:29:59.547Z,1.89
2023-01-19T00:35:02.391Z,1.99
2023-01-19T00:40:07.188Z,2.07
2023-01-19T00:45:18.671Z,2.08
2023-01-19T00:50:21.543Z,2.10
2023-01-19T00:55:24.411Z,2.20
2023-01-19T01:00:27.785Z,2.18
2023-01-19T01:05:30.688Z,2.12
2023-01-19T01:10:33.675Z,2.04
2023-01-19T01:15:36.558Z,1.98
2023-01-19T01:20:39.453Z,1.97
2023-01-19T01:25:42.610Z,2.00
2023-01-19T01:30:45.425Z,2.07
2023-01-19T01:35:52.095Z,2.18
2023-01-19T01:40:54.891Z,2.26
2023-01-19T01:45:57.876Z,2.18
2023-01-19T01:51:22.853Z,2.10
2023-01-19T01:56:32.451Z,2.21
2023-01-19T02:01:55.086Z,2.32
2023-01-19T02:07:17.179Z,2.39
2023-01-19T02:12:38.889Z,2.41
2023-01-19T02:17:42.595Z,2.40
2023-01-19T02:22:50.150Z,2.37
2023-01-19T02:27:52.970Z,2.32
2023-01-19T02:32:55.762Z,2.21
2023-01-19T02:37:58.764Z,2.05
2023-01-19T02:43:02.053Z,1.97
2023-01-19T02:48:06.029Z,1.90
2023-01-19T02:53:25.438Z,1.86
2023-01-19T02:59:03.191Z,1.92
2023-01-19T03:04:37.816Z,1.97
2023-01-19T03:09:52.702Z,1.99
2023-01-19T03:14:59.896Z,2.03
2023-01-19T03:20:03.002Z,2.14
2023-01-19T03:25:07.063Z,2.23
2023-01-19T03:30:14.630Z,2.31
2023-01-19T03:35:18.382Z,2.36
2023-01-19T03:40:21.162Z,2.43
2023-01-19T03:45:24.013Z,2.43
2023-01-19T03:50:29.682Z,2.41
2023-01-19T03:55:33.263Z,2.45
2023-01-19T04:00:36.615Z,2.48
2023-01-19T04:05:39.716Z,2.47
2023-01-19T04:10:42.562Z,2.50
2023-01-19T04:15:45.374Z,2.52
2023-01-19T04:20:48.273Z,2.51
2023-01-19T04:25:51.058Z,2.51
2023-01-19T04:30:54.799Z,2.48
2023-01-19T04:35:57.699Z,2.47
2023-01-19T04:41:00.469Z,2.48
2023-01-19T04:46:03.386Z,2.49
2023-01-19T04:51:06.185Z,2.43
2023-01-19T04:56:09.150Z,2.47
2023-01-19T05:01:11.936Z,2.47
2023-01-19T05:06:14.784Z,2.41
2023-01-19T05:11:17.632Z,2.42
2023-01-19T05:16:20.497Z,2.42
2023-01-19T05:21:23.339Z,2.42
2023-01-19T05:26:26.189Z,2.39
2023-01-19T05:31:29.134Z,2.40
2023-01-19T05:36:32.679Z,2.33
2023-01-19T05:41:35.834Z,2.31
2023-01-19T05:46:39.865Z,2.34
2023-01-19T05:51:45.551Z,2.33
2023-01-19T05:56:48.315Z,2.32
2023-01-19T06:01:54.328Z,2.36
2023-01-19T06:06:57.135Z,2.43
2023-01-19T06:11:59.906Z,2.43
2023-01-19T06:17:02.764Z,2.44
2023-01-19T06:22:06.318Z,2.45
2023-01-19T06:27:09.354Z,2.40
2023-01-19T06:32:12.264Z,2.36
2023-01-19T06:37:16.770Z,2.37
2023-01-19T06:42:19.595Z,2.38
2023-01-19T06:47:23.365Z,2.36
2023-01-19T06:52:26.179Z,2.36
2023-01-19T06:57:28.961Z,2.41
2023-01-19T07:02:31.915Z,2.44
2023-01-19T07:07:36.676Z,2.49
2023-01-19T07:12:39.503Z,2.50
2023-01-19T07:17:43.722Z,2.54
2023-01-19T07:22:46.692Z,2.58
2023-01-19T07:27:49.528Z,2.54
2023-01-19T07:32:56.870Z,2.55
2023-01-19T07:37:59.774Z,2.60
2023-01-19T07:43:02.987Z,2.63
2023-01-19T07:48:06.686Z,2.60
2023-01-19T07:53:09.947Z,2.63
2023-01-19T07:58:12.716Z,2.73
2023-01-19T08:03:15.718Z,2.77
2023-01-19T08:08:19.343Z,2.82
2023-01-19T08:13:22.197Z,2.89
2023-01-19T08:18:25.007Z,2.89
2023-01-19T08:23:28.204Z,2.85
2023-01-19T08:28:31.580Z,2.85
2023-01-19T08:33:34.480Z,2.90
2023-01-19T08:38:39.811Z,2.92
2023-01-19T08:43:43.015Z,2.90
2023-01-19T08:48:45.863Z,2.94
2023-01-19T08:53:48.671Z,2.97
2023-01-19T08:59:07.651Z,2.94
2023-01-19T09:04:12.213Z,2.90
2023-01-19T09:09:15.153Z,2.90
2023-01-19T09:14:18.018Z,2.98
2023-01-19T09:19:21.304Z,3.03
2023-01-19T09:24:24.156Z,2.97
2023-01-19T09:29:27.349Z,2.94
2023-01-19T09:34:31.451Z,2.96
2023-01-19T09:39:34.281Z,2.98
2023-01-19T09:44:37.184Z,2.95
2023-01-19T09:49:44.039Z,2.95
2023-01-19T09:54:53.062Z,2.93
2023-01-19T09:59:59.815Z,2.85
2023-01-19T10:05:32.689Z,2.77
2023-01-19T10:10:37.524Z,2.73
2023-01-19T10:16:01.992Z,2.77
2023-01-19T10:21:33.657Z,2.81
2023-01-19T10:26:55.847Z,2.85
2023-01-19T10:32:34.136Z,3.01
2023-01-19T10:37:37.966Z,3.11
2023-01-19T10:42:42.029Z,3.15
2023-01-19T10:47:46.294Z,3.16
2023-01-19T10:52:51.691Z,3.22
2023-01-19T10:57:54.550Z,3.28
2023-01-19T11:02:57.443Z,3.30
2023-01-19T11:08:00.362Z,3.30
2023-01-19T11:13:12.758Z,3.37
2023-01-19T11:18:29.885Z,3.41
2023-01-19T11:23:43.119Z,3.41
2023-01-19T11:28:47.597Z,3.39
2023-01-19T11:33:52.334Z,3.40
2023-01-19T11:39:00.590Z,3.47
2023-01-19T11:44:26.842Z,3.51
2023-01-19T11:49:46.727Z,3.43
2023-01-19T11:54:56.551Z,3.42
2023-01-19T12:00:03.657Z,3.46
2023-01-19T12:05:06.941Z,3.48
2023-01-19T12:10:26.622Z,3.41
2023-01-19T12:15:42.989Z,3.45
2023-01-19T12:20:52.475Z,3.49
2023-01-19T12:26:27.909Z,3.51
2023-01-19T12:31:31.017Z,3.49
2023-01-19T12:36:36.664Z,3.52
2023-01-19T12:41:40.319Z,3.53
2023-01-19T12:47:08.223Z,3.49
2023-01-19T12:52:34.525Z,3.58
2023-01-19T12:57:58.263Z,3.68
2023-01-19T13:03:18.495Z,3.67
2023-01-19T13:08:31.203Z,3.60
2023-01-19T13:13:41.232Z,3.46
2023-01-19T13:18:58.546Z,3.38
2023-01-19T13:24:22.484Z,3.34
2023-01-19T13:29:36.162Z,3.22
2023-01-19T13:34:40.391Z,3.19
2023-01-19T13:39:49.169Z,3.24
2023-01-19T13:44:53.676Z,3.22
2023-01-19T13:49:57.732Z,3.13
2023-01-19T13:55:03.458Z,3.13
2023-01-19T14:00:11.919Z,3.14
2023-01-19T14:05:30.360Z,3.16
2023-01-19T14:10:34.991Z,3.21
2023-01-19T14:15:38.650Z,3.18
2023-01-19T14:20:42.335Z,3.15
2023-01-19T14:25:45.179Z,3.08
2023-01-19T14:30:59.507Z,3.11
2023-01-19T14:36:33.370Z,3.14
2023-01-19T14:41:40.793Z,3.11
2023-01-19T14:46:47.618Z,3.06
2023-01-19T14:51:50.463Z,2.98
2023-01-19T14:56:53.891Z,2.89
2023-01-19T15:01:56.826Z,2.77
2023-01-19T15:06:59.688Z,2.77
2023-01-19T15:12:02.454Z,2.76
2023-01-19T15:17:05.255Z,2.76
2023-01-19T15:22:13.039Z,2.71
2023-01-19T15:27:16.223Z,2.74
2023-01-19T15:32:19.006Z,2.75
2023-01-19T15:37:21.911Z,2.74
2023-01-19T15:42:24.779Z,2.72
2023-01-19T15:47:27.624Z,2.78
2023-01-19T15:52:30.394Z,2.77
2023-01-19T15:57:35.152Z,2.76
2023-01-19T16:02:38.042Z,2.84
2023-01-19T16:07:40.993Z,2.86
2023-01-19T16:12:45.217Z,2.88
2023-01-19T16:17:49.445Z,2.79
2023-01-19T16:22:52.886Z,2.73
2023-01-19T16:27:57.027Z,2.69
2023-01-19T16:32:59.940Z,2.67
2023-01-19T16:38:02.854Z,2.64
2023-01-19T16:43:06.064Z,2.62
2023-01-19T16:48:08.987Z,2.63
2023-01-19T16:53:11.811Z,2.64
2023-01-19T16:58:14.808Z,2.68
2023-01-19T17:03:20.902Z,2.75
2023-01-19T17:08:24.091Z,2.72
2023-01-19T17:13:27.285Z,2.60
2023-01-19T17:18:32.842Z,2.61
2023-01-19T17:23:37.473Z,2.58
2023-01-19T17:28:40.493Z,2.45
2023-01-19T17:33:45.100Z,2.46
2023-01-19T17:38:58.609Z,2.47
2023-01-19T17:44:02.500Z,2.26
2023-01-19T17:49:06.711Z,2.29
2023-01-19T17:54:11.028Z,2.19
2023-01-19T17:59:13.902Z,2.07
2023-01-19T18:04:16.706Z,2.03
2023-01-19T18:09:19.559Z,2.07
2023-01-19T18:14:22.397Z,2.07
2023-01-19T18:19:25.256Z,2.11
2023-01-19T18:25:03.548Z,2.09
2023-01-19T18:30:40.470Z,2.04
2023-01-19T18:35:51.755Z,2.05
2023-01-19T18:41:03.261Z,2.05
2023-01-19T18:55:59.799Z,2.15
2023-01-19T19:01:33.633Z,1.98
2023-01-19T19:06:37.057Z,1.81
2023-01-19T19:11:40.067Z,1.69
2023-01-19T19:16:48.001Z,1.70
2023-01-19T19:21:54.721Z,1.71
2023-01-19T19:26:59.343Z,1.80
2023-01-19T19:33:21.734Z,1.83
2023-01-19T19:38:29.547Z,1.72
2023-01-19T19:43:34.428Z,1.58
2023-01-19T19:48:39.427Z,1.50
2023-01-19T19:53:43.394Z,1.51
2023-01-19T20:14:20.746Z,1.30
2023-01-19T20:19:24.289Z,1.36
2023-01-19T20:24:27.430Z,1.41
2023-01-19T20:29:30.746Z,1.47
2023-01-19T20:40:51.719Z,1.37
2023-01-19T21:00:21.443Z,1.21
2023-01-19T21:06:27.957Z,1.21
2023-01-19T21:11:30.919Z,1.20
2023-01-19T21:16:34.290Z,1.18
2023-01-19T21:21:37.182Z,1.21
2023-01-19T21:26:41.828Z,1.13
2023-01-19T21:31:44.731Z,1.05
2023-01-19T21:36:47.615Z,1.07
2023-01-19T21:41:50.397Z,1.00
2023-01-19T21:46:54.713Z,0.99
2023-01-19T21:51:57.642Z,0.99
2023-01-19T21:57:02.661Z,0.99
2023-01-19T22:02:06.107Z,1.00
2023-01-19T22:07:09.035Z,0.98
2023-01-19T22:12:11.852Z,0.93
2023-01-19T22:17:14.631Z,0.88
2023-01-19T22:22:17.414Z,0.89
2023-01-19T22:27:20.231Z,0.88
2023-01-19T22:32:23.059Z,0.86
2023-01-19T22:37:25.877Z,0.85
2023-01-19T22:42:28.682Z,0.81
2023-01-19T22:47:31.575Z,0.70
2023-01-19T22:52:34.333Z,0.67
2023-01-19T22:57:37.432Z,0.64
2023-01-19T23:02:40.376Z,0.57
2023-01-19T23:07:43.223Z,0.54
2023-01-19T23:12:46.762Z,0.50
2023-01-19T23:17:52.959Z,0.49
2023-01-19T23:22:55.751Z,0.54
2023-01-19T23:27:58.541Z,0.59
2023-01-19T23:33:02.824Z,0.61
2023-01-19T23:38:05.875Z,0.70
2023-01-19T23:43:08.685Z,0.78
2023-01-19T23:48:11.508Z,0.79
2023-01-19T23:53:14.277Z,0.81
2023-01-19T23:58:17.138Z,0.77
